Time;durP1;ratioP1;P1;durP2;ratioP2;P2;SDS_P1;SDS_P2;PMS_P1;PMS_P2;Temp;Humidity;BMP_temperature;BMP_pressure;BME280_temperature;BME280_humidity;BME280_pressure;Samples;Min_cycle;Max_cycle;Signal;HPM_P1;HPM_P2
2022/12/25 00:01:05;;;;;;;10.27;4.60;;;;;;;5.78;100.00;94077.66;4999219;28;20046;-64
2022/12/25 00:03:32;;;;;;;13.15;5.00;;;;;;;5.72;100.00;94081.91;4992894;28;20235;-64
2022/12/25 00:05:58;;;;;;;10.23;4.27;;;;;;;5.76;100.00;94067.13;4993926;28;20045;-64
2022/12/25 00:08:25;;;;;;;9.13;4.43;;;;;;;5.83;100.00;94068.34;4993643;28;20069;-64
2022/12/25 00:11:04;;;;;;;10.35;4.40;;;;;;;5.75;100.00;94067.50;4992991;28;20479;-64
2022/12/25 00:13:31;;;;;;;8.27;3.80;;;;;;;5.78;100.00;94072.97;4992821;28;20051;-64
2022/12/25 00:15:58;;;;;;;8.93;3.97;;;;;;;5.80;100.00;94070.66;4993317;28;20057;-64
2022/12/25 00:18:25;;;;;;;8.90;3.87;;;;;;;5.86;100.00;94059.41;4993200;28;20450;-64
2022/12/25 00:20:59;;;;;;;8.45;3.55;;;;;;;5.86;100.00;94060.19;4997601;28;20096;-65
2022/12/25 00:23:26;;;;;;;9.10;4.05;;;;;;;5.88;100.00;94054.38;4993331;28;20050;-65
2022/12/25 00:25:53;;;;;;;9.23;3.70;;;;;;;5.85;100.00;94057.84;4992745;28;20042;-64
2022/12/25 00:28:21;;;;;;;8.77;3.83;;;;;;;5.83;100.00;94060.16;4992947;28;20177;-64
2022/12/25 00:30:49;;;;;;;8.10;3.70;;;;;;;5.84;100.00;94059.03;4992741;28;20111;-64
2022/12/25 00:33:16;;;;;;;8.30;3.60;;;;;;;5.85;100.00;94060.56;4993041;28;20046;-64
2022/12/25 00:35:43;;;;;;;8.10;4.10;;;;;;;5.85;100.00;94053.16;4993011;28;20050;-64
2022/12/25 00:38:10;;;;;;;8.68;3.75;;;;;;;5.84;100.00;94048.13;4992874;28;20034;-65
2022/12/25 00:40:42;;;;;;;9.35;4.40;;;;;;;5.87;100.00;94050.06;4991745;28;20802;-65
2022/12/25 00:43:10;;;;;;;8.10;3.43;;;;;;;5.96;100.00;94050.53;4993070;28;20402;-64
2022/12/25 00:45:36;;;;;;;10.00;4.53;;;;;;;5.89;100.00;94040.34;4992186;28;20112;-64
2022/12/25 00:48:03;;;;;;;10.23;4.50;;;;;;;5.85;100.00;94045.00;4992890;28;20051;-64
2022/12/25 00:50:30;;;;;;;9.73;3.70;;;;;;;5.92;100.00;94042.31;5006977;28;20048;-64
2022/12/25 00:52:56;;;;;;;11.00;4.00;;;;;;;5.92;100.00;94033.38;4992760;28;20050;-65
2022/12/25 00:55:23;;;;;;;10.03;3.90;;;;;;;6.02;100.00;94032.66;4992565;28;20402;-64
2022/12/25 00:57:50;;;;;;;8.50;4.10;;;;;;;6.11;100.00;94022.16;4992283;28;20042;-64
2022/12/25 01:00:17;;;;;;;12.25;6.38;;;;;;;6.15;100.00;94022.19;4992592;28;20526;-64
2022/12/25 01:02:44;;;;;;;11.35;5.38;;;;;;;6.16;100.00;94021.81;4992208;28;20046;-64
2022/12/25 01:05:10;;;;;;;10.77;5.20;;;;;;;6.12;100.00;94017.53;4992802;28;20043;-65
2022/12/25 01:07:37;;;;;;;17.37;6.70;;;;;;;5.96;100.00;94031.47;4991623;28;20052;-64
2022/12/25 01:10:23;;;;;;;11.40;5.07;;;;;;;5.91;100.00;94039.97;4992493;28;20447;-64
2022/12/25 01:12:51;;;;;;;10.43;4.45;;;;;;;5.79;100.00;94044.59;4992092;28;20042;-64
2022/12/25 01:15:18;;;;;;;10.98;4.40;;;;;;;5.93;100.00;94045.81;4992376;28;20054;-64
2022/12/25 01:17:45;;;;;;;11.10;4.63;;;;;;;5.80;100.00;94043.44;4992128;28;20050;-64
2022/12/25 01:20:14;;;;;;;9.67;4.77;;;;;;;5.87;100.00;94053.56;4992279;28;20042;-65
2022/12/25 01:22:41;;;;;;;11.20;4.43;;;;;;;5.91;100.00;94042.69;4991458;28;20046;-64
2022/12/25 01:25:09;;;;;;;12.50;5.05;;;;;;;5.79;100.00;94049.25;4992208;28;20061;-65
2022/12/25 01:27:37;;;;;;;25.10;12.95;;;;;;;5.86;100.00;94043.84;5006343;28;20046;-64
2022/12/25 01:30:05;;;;;;;15.18;6.88;;;;;;;5.94;100.00;94053.63;4992010;28;20100;-65
2022/12/25 01:32:31;;;;;;;12.77;5.57;;;;;;;5.96;100.00;94053.25;5006232;28;20064;-64
2022/12/25 01:34:58;;;;;;;11.68;5.07;;;;;;;5.96;100.00;94059.50;4992025;28;20417;-64
2022/12/25 01:37:25;;;;;;;11.65;5.03;;;;;;;6.00;100.00;94065.72;4991779;28;20050;-64
2022/12/25 01:39:51;;;;;;;11.55;4.90;;;;;;;5.90;100.00;94063.72;4998487;28;20049;-65
2022/12/25 01:42:22;;;;;;;11.40;5.15;;;;;;;5.99;100.00;94060.66;4997473;28;20050;-65
2022/12/25 01:44:49;;;;;;;12.17;5.10;;;;;;;6.07;100.00;94069.66;4991583;28;20378;-64
2022/12/25 01:47:17;;;;;;;11.25;4.82;;;;;;;6.08;100.00;94069.28;4991746;28;20050;-65
2022/12/25 01:49:48;;;;;;;10.48;4.65;;;;;;;6.13;100.00;94073.56;4990971;28;20050;-64
2022/12/25 01:52:22;;;;;;;12.32;4.95;;;;;;;6.09;100.00;94068.09;4991368;28;20050;-64
2022/12/25 01:54:56;;;;;;;10.07;4.78;;;;;;;6.16;100.00;94072.81;4991175;28;20382;-65
2022/12/25 01:57:31;;;;;;;9.67;4.23;;;;;;;6.02;100.00;94072.72;4991210;28;20042;-64
2022/12/25 01:59:59;;;;;;;11.68;4.30;;;;;;;6.11;100.00;94068.50;4990609;28;20751;-65
2022/12/25 02:02:28;;;;;;;9.48;3.95;;;;;;;6.20;100.00;94063.47;4990960;28;20054;-65
2022/12/25 02:05:03;;;;;;;8.13;3.20;;;;;;;6.24;100.00;94057.25;4990796;28;20046;-64
2022/12/25 02:07:33;;;;;;;7.80;3.65;;;;;;;6.28;100.00;94071.66;5003921;28;20484;-64
2022/12/25 02:10:00;;;;;;;8.17;4.00;;;;;;;6.13;100.00;94063.44;4991679;28;20502;-64
2022/12/25 02:12:31;;;;;;;7.63;3.58;;;;;;;6.16;100.00;94062.69;4991161;28;20060;-64
2022/12/25 02:15:02;;;;;;;7.88;3.67;;;;;;;6.17;100.00;94060.72;4990520;28;20156;-64
2022/12/25 02:17:54;;;;;;;8.32;4.18;;;;;;;6.11;100.00;94065.00;4990532;28;20048;-64
2022/12/25 02:20:52;;;;;;;8.43;3.75;;;;;;;5.99;100.00;94064.16;5006090;28;20042;-65
2022/12/25 02:24:07;;;;;;;7.77;3.70;;;;;;;6.04;100.00;94048.59;4979907;28;20694;-65
2022/12/25 02:26:46;;;;;;;7.53;3.05;;;;;;;5.99;100.00;94047.81;4988167;28;21205;-64
2022/12/25 02:29:50;;;;;;;22.08;12.02;;;;;;;6.04;100.00;94051.31;4991227;28;20057;-64
2022/12/25 02:32:29;;;;;;;33.15;20.33;;;;;;;6.07;100.00;94056.78;4990105;28;20834;-64
2022/12/25 02:35:11;;;;;;;22.88;13.88;;;;;;;6.07;100.00;94042.41;4990341;28;20701;-65
2022/12/25 02:37:54;;;;;;;12.13;5.93;;;;;;;6.20;100.00;94040.91;4990281;28;20045;-64
2022/12/25 02:40:29;;;;;;;11.18;4.15;;;;;;;6.06;100.00;94038.91;4990642;28;20068;-64
2022/12/25 03:12:30;;;;;;;6.97;3.47;;;;;;;5.77;100.00;94024.34;4979478;28;20103;-65
2022/12/25 03:17:42;;;;;;;10.00;4.38;;;;;;;5.29;100.00;94036.16;4989631;28;20043;-64
2022/12/25 03:28:26;;;;;;;7.65;3.25;;;;;;;5.82;100.00;94026.72;4980080;28;20406;-64
2022/12/25 03:31:10;;;;;;;7.35;3.25;;;;;;;5.90;100.00;94022.84;5004664;28;20038;-65
2022/12/25 04:37:58;;;;;;;10.45;4.28;;;;;;;5.88;100.00;93987.06;4992527;28;21480;-65
2022/12/25 04:40:25;;;;;;;9.35;4.40;;;;;;;5.93;100.00;93994.06;4992835;28;20050;-65
2022/12/25 04:42:52;;;;;;;9.97;5.93;;;;;;;5.92;100.00;93989.78;4992282;28;20046;-65
2022/12/25 04:45:19;;;;;;;9.18;4.65;;;;;;;5.94;100.00;93996.41;4992994;28;20046;-64
2022/12/25 04:47:45;;;;;;;9.32;4.60;;;;;;;5.99;100.00;93995.28;4991964;28;20042;-65
2022/12/25 04:50:12;;;;;;;9.45;4.55;;;;;;;5.86;100.00;94007.66;4992988;28;20045;-65
2022/12/25 04:52:40;;;;;;;9.85;4.60;;;;;;;5.95;100.00;94002.66;4991932;28;20050;-64
2022/12/25 04:55:08;;;;;;;7.97;4.10;;;;;;;5.94;100.00;94006.53;4992748;28;20249;-64
2022/12/25 04:57:34;;;;;;;11.48;4.78;;;;;;;5.74;100.00;93995.16;4991817;28;20042;-64
2022/12/25 05:00:01;;;;;;;12.02;5.82;;;;;;;5.70;100.00;93989.69;5007759;28;20042;-65
2022/12/25 05:02:28;;;;;;;17.05;5.80;;;;;;;5.66;100.00;93988.91;4992299;28;20100;-64
2022/12/25 05:04:55;;;;;;;15.82;6.70;;;;;;;5.67;100.00;93978.78;4991356;28;20621;-65
2022/12/25 05:07:22;;;;;;;17.10;7.57;;;;;;;5.65;100.00;93983.84;5005639;28;20100;-65
2022/12/25 05:09:48;;;;;;;17.35;8.63;;;;;;;5.65;100.00;93984.59;4991806;28;23108;-65
2022/12/25 05:12:15;;;;;;;19.08;8.77;;;;;;;5.63;100.00;93970.59;4992211;28;20100;-65
2022/12/25 05:14:42;;;;;;;18.10;9.07;;;;;;;5.82;100.00;93972.25;4991541;28;20100;-65
2022/12/25 05:17:08;;;;;;;15.65;6.63;;;;;;;5.80;100.00;93969.91;4992454;28;20053;-65
2022/12/25 05:19:35;;;;;;;16.53;6.63;;;;;;;5.79;100.00;93962.91;4991677;28;20402;-65
2022/12/25 05:22:02;;;;;;;14.38;6.00;;;;;;;5.86;100.00;93966.81;4992365;28;20462;-64
2022/12/25 05:24:28;;;;;;;13.52;6.20;;;;;;;5.85;100.00;93970.69;4994481;28;20100;-65
2022/12/25 05:26:55;;;;;;;14.27;6.10;;;;;;;5.85;100.00;93962.53;4991039;28;20935;-65
2022/12/25 05:29:22;;;;;;;13.57;6.20;;;;;;;5.84;100.00;93967.19;4992369;28;20076;-65
2022/12/25 05:31:48;;;;;;;12.70;5.60;;;;;;;5.88;100.00;93969.94;4990017;28;20072;-64
2022/12/25 05:34:15;;;;;;;12.35;5.32;;;;;;;5.86;100.00;93959.41;4992043;28;20046;-65
2022/12/25 05:36:42;;;;;;;13.02;5.97;;;;;;;5.86;100.00;93956.69;4991329;28;20054;-65
2022/12/25 05:39:09;;;;;;;11.95;5.75;;;;;;;5.91;100.00;93956.31;4991856;28;20056;-66
2022/12/25 05:41:35;;;;;;;12.35;5.68;;;;;;;5.97;100.00;93945.84;4991103;28;20046;-65
2022/12/25 05:44:02;;;;;;;13.83;6.57;;;;;;;5.90;100.00;93943.88;4991851;28;20050;-65
2022/12/25 05:46:29;;;;;;;13.50;6.10;;;;;;;5.95;100.00;93943.50;4991296;28;20185;-62
2022/12/25 05:48:55;;;;;;;12.73;5.60;;;;;;;5.97;100.00;93943.91;4991544;28;20038;-64
2022/12/25 05:51:22;;;;;;;12.88;5.50;;;;;;;6.02;100.00;93952.84;4991761;28;20054;-64
2022/12/25 05:53:49;;;;;;;12.00;5.57;;;;;;;6.01;100.00;93949.38;4991176;28;20434;-64
2022/12/25 05:56:16;;;;;;;12.77;5.53;;;;;;;6.00;100.00;93945.09;4991930;28;20049;-64
2022/12/25 05:58:42;;;;;;;10.82;5.40;;;;;;;6.07;100.00;93944.31;4990879;28;20521;-64
2022/12/25 06:01:14;;;;;;;11.00;5.47;;;;;;;6.03;100.00;93951.72;5006720;28;20077;-64
2022/12/25 06:03:41;;;;;;;10.73;5.10;;;;;;;6.00;100.00;93943.16;4991014;28;20384;-64
2022/12/25 06:06:09;;;;;;;10.02;5.05;;;;;;;6.01;100.00;93941.19;4991694;28;20043;-64
2022/12/25 06:08:36;;;;;;;10.97;4.93;;;;;;;6.03;100.00;93938.88;4990858;28;20051;-63
2022/12/25 06:11:05;;;;;;;9.52;4.50;;;;;;;6.01;100.00;93941.19;4991336;28;20474;-64
2022/12/25 06:13:33;;;;;;;10.55;5.07;;;;;;;5.97;100.00;93930.28;4991061;28;20583;-63
2022/12/25 06:16:06;;;;;;;10.95;4.50;;;;;;;5.92;100.00;93932.59;4991416;28;20050;-64
2022/12/25 06:18:37;;;;;;;10.65;5.40;;;;;;;5.89;100.00;93931.41;4990959;28;20046;-64
2022/12/25 06:21:06;;;;;;;12.30;5.50;;;;;;;5.83;100.00;93941.09;4991225;28;20050;-63
2022/12/25 06:23:33;;;;;;;11.93;5.50;;;;;;;5.85;100.00;93935.28;4990935;28;20052;-64
2022/12/25 06:26:04;;;;;;;13.50;6.47;;;;;;;5.77;100.00;93931.75;4994445;28;20046;-64
2022/12/25 06:28:30;;;;;;;12.52;5.55;;;;;;;5.76;100.00;93936.44;4990749;28;20068;-64
2022/12/25 06:30:57;;;;;;;11.43;5.75;;;;;;;5.69;100.00;93930.19;4990604;28;20046;-64
2022/12/25 06:33:24;;;;;;;13.77;5.90;;;;;;;5.61;100.00;93937.53;4991203;28;20060;-64
2022/12/25 06:35:50;;;;;;;11.68;5.65;;;;;;;5.52;100.00;93928.97;4990593;28;20042;-64
2022/12/25 06:38:17;;;;;;;14.02;6.00;;;;;;;5.41;100.00;93928.88;5005632;28;20414;-64
2022/12/25 06:40:44;;;;;;;12.35;5.40;;;;;;;5.38;100.00;93925.00;4990131;28;20227;-64
2022/12/25 06:43:10;;;;;;;14.18;6.22;;;;;;;5.32;100.00;93934.69;4991045;28;20042;-64
2022/12/25 06:45:37;;;;;;;12.37;5.60;;;;;;;5.32;100.00;93942.09;4990583;28;20108;-66
2022/12/25 06:48:04;;;;;;;13.00;5.50;;;;;;;5.34;100.00;93934.31;4977944;28;20054;-64
2022/12/25 06:50:31;;;;;;;11.43;5.00;;;;;;;5.31;100.00;93944.03;4990261;28;20053;-64
2022/12/25 06:52:57;;;;;;;13.70;5.63;;;;;;;5.30;100.00;93942.47;4996655;28;20414;-64
2022/12/25 06:55:24;;;;;;;13.13;5.60;;;;;;;5.25;100.00;93948.28;4997410;28;20054;-64
2022/12/25 06:57:51;;;;;;;14.60;7.20;;;;;;;5.23;100.00;93958.72;4983731;28;20042;-64
2022/12/25 07:00:17;;;;;;;12.98;6.03;;;;;;;5.19;100.00;93955.22;4998545;28;20399;-64
2022/12/25 07:02:48;;;;;;;13.25;6.00;;;;;;;5.16;100.00;93956.00;4989398;28;20428;-64
2022/12/25 07:05:15;;;;;;;136.32;56.03;;;;;;;5.12;100.00;93955.97;4990686;28;20054;-64
2022/12/25 07:07:42;;;;;;;120.28;59.33;;;;;;;5.04;100.00;93945.44;4989967;28;20046;-64
2022/12/25 07:10:09;;;;;;;20.50;9.67;;;;;;;4.96;100.00;93955.47;4990482;28;20042;-64
2022/12/25 07:12:36;;;;;;;14.43;6.30;;;;;;;4.94;100.00;93946.91;4990030;28;20037;-64
2022/12/25 07:15:02;;;;;;;14.60;6.13;;;;;;;4.89;100.00;93955.41;4989020;28;20051;-64
2022/12/25 07:17:29;;;;;;;15.43;6.22;;;;;;;4.81;100.00;93949.16;4989919;28;20072;-64
2022/12/25 07:19:56;;;;;;;14.10;6.70;;;;;;;4.80;100.00;93951.09;4990292;28;20119;-64
2022/12/25 07:22:23;;;;;;;16.00;6.60;;;;;;;4.78;100.00;93953.41;5003542;28;20060;-65
2022/12/25 07:24:49;;;;;;;14.82;6.38;;;;;;;4.78;100.00;93961.56;4991151;28;20054;-65
2022/12/25 07:27:16;;;;;;;18.27;9.52;;;;;;;4.50;100.00;93966.78;4990378;28;20054;-64
2022/12/25 07:29:43;;;;;;;77.80;8.55;;;;;;;4.62;100.00;93968.44;4989481;28;20046;-64
2022/12/25 07:32:09;;;;;;;74.13;8.70;;;;;;;4.64;100.00;93956.00;4990336;28;20459;-65
2022/12/25 07:34:36;;;;;;;59.10;8.37;;;;;;;4.68;100.00;93966.91;4989875;28;20054;-65
2022/12/25 07:37:03;;;;;;;107.15;9.00;;;;;;;4.66;100.00;93958.38;5004959;28;20104;-65
2022/12/25 07:39:29;;;;;;;57.65;10.65;;;;;;;4.58;100.00;93952.09;4989844;28;20034;-64
2022/12/25 07:41:56;;;;;;;135.35;11.00;;;;;;;4.51;100.00;93957.47;4989826;28;20083;-64
2022/12/25 07:44:23;;;;;;;67.40;8.55;;;;;;;4.64;100.00;93952.53;5003230;28;20042;-65
2022/12/25 07:46:50;;;;;;;43.53;7.67;;;;;;;4.70;100.00;93948.28;4989428;28;20103;-64
2022/12/25 07:49:16;;;;;;;196.32;9.93;;;;;;;4.61;100.00;93945.91;4991156;28;20047;-65
2022/12/25 07:51:43;;;;;;;104.72;15.80;;;;;;;4.74;100.00;93941.72;4993074;28;20493;-64
2022/12/25 07:54:10;;;;;;;30.45;11.02;;;;;;;4.91;100.00;93947.66;4993979;28;20050;-64
2022/12/25 07:56:37;;;;;;;77.68;13.85;;;;;;;4.95;100.00;93935.66;4993389;28;20054;-64
2022/12/25 07:59:03;;;;;;;58.43;13.00;;;;;;;4.94;100.00;93938.75;4993812;28;20121;-64
2022/12/25 08:01:30;;;;;;;60.78;13.45;;;;;;;4.84;100.00;93942.97;4992917;28;20054;-64
2022/12/25 08:04:00;;;;;;;44.65;18.73;;;;;;;4.92;100.00;93939.13;4993616;28;20069;-64
2022/12/25 08:06:32;;;;;;;41.50;8.65;;;;;;;4.85;100.00;93949.16;4993548;28;20046;-64
2022/12/25 08:09:05;;;;;;;25.35;5.20;;;;;;;4.69;100.00;93947.53;4992666;28;20767;-64
2022/12/25 08:11:31;;;;;;;50.20;6.27;;;;;;;4.68;100.00;93948.66;4993145;28;20044;-65
2022/12/25 08:13:58;;;;;;;33.70;5.85;;;;;;;4.69;100.00;93944.00;4993189;28;20050;-64
2022/12/25 08:16:25;;;;;;;59.08;5.25;;;;;;;4.68;100.00;93942.47;4993311;28;20046;-64
2022/12/25 08:18:52;;;;;;;41.25;5.25;;;;;;;4.74;100.00;93946.38;4992793;28;20058;-65
2022/12/25 08:21:19;;;;;;;50.08;5.95;;;;;;;4.98;100.00;93942.28;4992981;28;20061;-65
2022/12/25 08:23:47;;;;;;;12.67;5.87;;;;;;;5.29;100.00;93940.09;4992327;28;20341;-65
2022/12/25 08:26:18;;;;;;;31.73;5.47;;;;;;;5.42;100.00;93944.06;4993314;28;20038;-64
2022/12/25 08:28:46;;;;;;;16.58;5.53;;;;;;;5.47;100.00;93945.66;4992381;28;20046;-65
2022/12/25 08:31:20;;;;;;;32.22;7.32;;;;;;;5.33;100.00;93955.31;4993010;28;20039;-64
2022/12/25 08:33:48;;;;;;;63.45;11.05;;;;;;;5.31;100.00;93957.63;4992326;28;20051;-65
2022/12/25 08:36:16;;;;;;;75.70;9.90;;;;;;;5.20;100.00;93952.13;4993138;28;20054;-66
2022/12/25 08:38:43;;;;;;;65.18;8.15;;;;;;;5.36;100.00;93942.88;4992679;28;20499;-65
2022/12/25 08:41:10;;;;;;;134.18;10.88;;;;;;;5.39;100.00;93947.53;4992849;28;20046;-66
2022/12/25 08:43:38;;;;;;;56.55;6.78;;;;;;;5.62;100.00;93960.88;4992419;28;20054;-65
2022/12/25 08:46:05;;;;;;;48.45;7.50;;;;;;;5.89;100.00;93955.13;4992472;28;20246;-65
2022/12/25 08:48:33;;;;;;;48.47;7.87;;;;;;;6.18;100.00;93956.81;4992353;28;20050;-65
2022/12/25 08:51:00;;;;;;;50.03;8.00;;;;;;;6.00;100.00;93956.00;4992365;28;20042;-64
2022/12/25 08:53:27;;;;;;;80.10;7.32;;;;;;;6.45;100.00;93955.69;4992736;28;20156;-65
2022/12/25 08:56:05;;;;;;;55.85;7.05;;;;;;;6.73;100.00;93961.13;4992120;28;20043;-64
2022/12/25 08:58:32;;;;;;;35.90;6.63;;;;;;;6.85;100.00;93951.78;4992591;28;20085;-65
2022/12/25 09:00:59;;;;;;;33.60;6.23;;;;;;;7.45;100.00;93947.41;4991965;28;20434;-65
2022/12/25 09:03:26;;;;;;;31.27;5.90;;;;;;;7.91;100.00;93940.22;4992743;28;20077;-65
2022/12/25 09:05:53;;;;;;;50.97;6.10;;;;;;;7.94;100.00;93934.72;4992029;28;20450;-65
2022/12/25 09:08:20;;;;;;;32.47;5.80;;;;;;;8.09;100.00;93935.44;4992581;28;20046;-65
2022/12/25 09:10:47;;;;;;;18.42;5.60;;;;;;;8.36;100.00;93937.63;4991800;28;20054;-64
2022/12/25 09:13:14;;;;;;;29.20;5.00;;;;;;;8.66;100.00;93945.25;4991046;28;20046;-66
2022/12/25 09:15:41;;;;;;;25.17;5.60;;;;;;;8.24;100.00;93946.28;4991990;28;20046;-65
2022/12/25 09:18:08;;;;;;;31.75;5.75;;;;;;;8.46;100.00;93939.53;4992032;28;20050;-65
2022/12/25 09:20:34;;;;;;;23.60;5.85;;;;;;;8.59;99.72;93939.81;4991459;28;20042;-65
2022/12/25 09:23:01;;;;;;;66.40;6.22;;;;;;;8.06;99.59;93947.16;4991627;28;20054;-65
2022/12/25 09:25:29;;;;;;;15.70;5.70;;;;;;;9.69;92.77;93937.22;4992198;28;20054;-65
2022/12/25 09:27:56;;;;;;;17.05;4.93;;;;;;;10.81;84.33;93938.50;4991099;28;20223;-65
2022/12/25 09:30:22;;;;;;;16.50;5.30;;;;;;;10.96;82.29;93929.59;4990822;28;20050;-66
2022/12/25 09:32:49;;;;;;;13.75;5.95;;;;;;;10.64;83.17;93923.84;4991217;28;20135;-65
2022/12/25 09:35:17;;;;;;;10.98;5.47;;;;;;;11.64;81.46;93930.38;4992139;28;20042;-66
2022/12/25 09:37:44;;;;;;;9.40;4.87;;;;;;;13.02;74.46;93924.28;5006148;28;20052;-66
2022/12/25 09:40:17;;;;;;;8.18;5.10;;;;;;;14.70;67.27;93910.59;4991510;28;20068;-66
2022/12/25 09:42:45;;;;;;;7.68;4.55;;;;;;;14.96;62.21;93905.81;4991381;28;20050;-66
2022/12/25 09:45:24;;;;;;;10.55;5.90;;;;;;;14.52;65.28;93911.13;4991661;28;20054;-68
2022/12/25 09:47:56;;;;;;;8.48;5.78;;;;;;;15.07;62.52;93901.94;4995655;28;20093;-66
2022/12/25 09:50:38;;;;;;;7.73;5.03;;;;;;;15.42;61.09;93902.75;4999022;28;20050;-66
2022/12/25 09:53:11;;;;;;;7.53;4.50;;;;;;;16.35;57.68;93906.97;4979215;28;20191;-66
2022/12/25 09:55:48;;;;;;;6.68;4.40;;;;;;;17.66;53.06;93907.72;4991038;28;20073;-66
2022/12/25 09:58:15;;;;;;;7.05;4.80;;;;;;;18.94;50.66;93900.41;4991722;28;20042;-65
2022/12/25 10:01:00;;;;;;;6.88;4.72;;;;;;;18.30;49.54;93903.38;4990999;28;20053;-66
2022/12/25 10:03:51;;;;;;;7.83;4.73;;;;;;;17.48;51.45;93904.91;4991351;28;20068;-66
2022/12/25 10:06:29;;;;;;;6.60;4.60;;;;;;;17.62;52.86;93900.78;4981179;28;20050;-65
2022/12/25 10:09:19;;;;;;;8.60;5.10;;;;;;;17.37;52.28;93902.59;4990144;28;20477;-65
2022/12/25 10:11:46;;;;;;;7.90;5.00;;;;;;;17.20;53.20;93902.09;4970851;28;20052;-65
2022/12/25 10:14:28;;;;;;;8.13;5.50;;;;;;;16.41;55.04;93899.63;4989556;28;20046;-65
2022/12/25 10:17:21;;;;;;;7.87;5.30;;;;;;;17.01;54.91;93898.50;4990368;28;20082;-65
2022/12/25 10:19:53;;;;;;;7.38;5.07;;;;;;;17.96;52.73;93897.72;4990851;28;20796;-65
2022/12/25 10:22:50;;;;;;;9.00;5.82;;;;;;;16.92;54.36;93879.06;4978244;28;20060;-65
2022/12/25 10:25:21;;;;;;;7.03;4.80;;;;;;;18.58;51.59;93883.84;4989911;28;21509;-65
2022/12/25 10:27:52;;;;;;;7.70;5.43;;;;;;;19.54;48.52;93878.44;4990464;28;20042;-65
2022/12/25 10:30:22;;;;;;;6.73;4.77;;;;;;;20.02;47.03;93875.59;5003772;28;20042;-65
2022/12/25 10:32:50;;;;;;;7.82;5.15;;;;;;;19.56;48.72;93873.94;4990840;28;21895;-67
2022/12/25 10:35:21;;;;;;;8.05;5.43;;;;;;;16.70;54.24;93879.13;4990554;28;20048;-64
2022/12/25 10:37:56;;;;;;;8.23;5.32;;;;;;;16.53;56.16;93876.59;4990173;28;20046;-64
2022/12/25 10:40:22;;;;;;;8.68;5.03;;;;;;;14.55;61.89;93882.63;4979110;28;20061;-65
2022/12/25 10:42:57;;;;;;;7.67;5.00;;;;;;;14.73;61.80;93867.53;4990410;28;20080;-65
2022/12/25 10:45:24;;;;;;;7.00;4.60;;;;;;;15.77;60.53;93872.31;5001133;28;20042;-64
2022/12/25 10:48:01;;;;;;;8.18;5.32;;;;;;;16.82;58.10;93863.66;4992354;28;20046;-65
2022/12/25 10:50:41;;;;;;;8.32;5.05;;;;;;;16.91;56.37;93860.91;4990190;28;20050;-64
2022/12/25 10:53:23;;;;;;;8.00;5.30;;;;;;;17.35;55.18;93857.91;4989994;28;20056;-64
2022/12/25 10:56:14;;;;;;;7.10;4.50;;;;;;;17.55;54.86;93852.69;5004868;28;20222;-64
2022/12/25 10:58:42;;;;;;;8.68;5.45;;;;;;;18.05;53.67;93854.50;4990013;28;20042;-65
2022/12/25 11:01:10;;;;;;;9.95;6.13;;;;;;;17.68;55.30;93844.19;4990039;28;20120;-64
2022/12/25 11:03:45;;;;;;;7.35;4.88;;;;;;;16.69;57.02;93849.88;4989941;28;20438;-64
2022/12/25 11:06:27;;;;;;;9.32;6.25;;;;;;;17.78;55.06;93853.28;4990126;28;20046;-65
2022/12/25 11:08:57;;;;;;;8.73;5.37;;;;;;;18.21;54.49;93845.84;5004936;28;20046;-64
2022/12/25 11:11:25;;;;;;;8.45;5.10;;;;;;;18.73;53.43;93841.03;4990336;28;20065;-65
2022/12/25 11:14:00;;;;;;;6.43;4.30;;;;;;;17.51;56.06;93845.75;4989801;28;20405;-65
2022/12/25 11:16:34;;;;;;;6.90;4.63;;;;;;;17.33;56.25;93843.72;4990657;28;20402;-65
2022/12/25 11:19:02;;;;;;;7.13;4.45;;;;;;;17.78;54.86;93847.72;4989208;28;21689;-65
2022/12/25 11:21:35;;;;;;;6.23;4.00;;;;;;;17.14;56.92;93837.38;4990377;28;20156;-65
2022/12/25 11:24:05;;;;;;;6.57;3.83;;;;;;;17.46;56.45;93835.25;4991133;28;20783;-65
2022/12/25 11:26:46;;;;;;;5.90;3.80;;;;;;;17.28;56.52;93836.00;4994021;28;20046;-64
2022/12/25 11:29:25;;;;;;;4.40;2.83;;;;;;;16.81;58.26;93837.94;4994065;28;20471;-65
2022/12/25 11:31:54;;;;;;;4.75;2.90;;;;;;;17.54;57.20;93833.72;4993413;28;20038;-64
2022/12/25 11:34:32;;;;;;;5.23;3.27;;;;;;;17.74;56.77;93838.78;4994297;28;20042;-64
2022/12/25 11:37:01;;;;;;;4.00;2.30;;;;;;;17.27;58.83;93837.25;4992957;28;20835;-64
2022/12/25 11:39:34;;;;;;;4.35;2.47;;;;;;;17.23;57.58;93839.41;4993990;28;20068;-64
2022/12/25 11:42:04;;;;;;;4.05;2.58;;;;;;;16.03;61.11;93831.44;4993162;28;20833;-64
2022/12/25 11:44:39;;;;;;;3.83;2.60;;;;;;;16.35;61.27;93841.28;4993518;28;20046;-64
2022/12/25 11:47:24;;;;;;;4.20;2.70;;;;;;;16.32;60.86;93822.06;4993833;28;20050;-64
2022/12/25 11:49:58;;;;;;;4.82;2.95;;;;;;;15.61;63.35;93823.44;4993871;28;20108;-64
2022/12/25 11:52:32;;;;;;;4.90;3.10;;;;;;;15.96;63.67;93823.41;4993762;28;20058;-64
2022/12/25 11:55:07;;;;;;;5.32;3.38;;;;;;;16.97;60.94;93814.72;4992958;28;21458;-64
2022/12/25 11:57:35;;;;;;;5.30;3.30;;;;;;;16.82;59.46;93799.91;4993377;28;20503;-63
2022/12/25 12:00:09;;;;;;;4.50;2.80;;;;;;;17.49;58.16;93801.81;4993677;28;20057;-64
2022/12/25 12:03:03;;;;;;;4.15;2.60;;;;;;;16.60;60.50;93808.28;4993059;28;20046;-64
2022/12/25 12:05:44;;;;;;;4.30;2.40;;;;;;;16.81;59.54;93798.34;4992525;28;20422;-63
2022/12/25 12:08:12;;;;;;;4.40;2.20;;;;;;;15.65;62.38;93799.19;4993464;28;20073;-64
2022/12/25 12:11:24;;;;;;;3.33;1.73;;;;;;;15.47;63.50;93790.78;4993114;28;20050;-64
2022/12/25 12:14:09;;;;;;;3.20;1.80;;;;;;;15.67;63.66;93790.44;4974112;28;20038;-64
2022/12/25 12:16:36;;;;;;;3.53;1.80;;;;;;;15.13;63.87;93778.53;4982609;28;20060;-64
2022/12/25 12:19:25;;;;;;;3.40;1.50;;;;;;;14.86;64.18;93790.13;4992762;28;20050;-65
2022/12/25 12:21:55;;;;;;;2.97;1.73;;;;;;;14.33;66.50;93788.66;4993225;28;20046;-64
2022/12/25 12:24:27;;;;;;;4.20;2.15;;;;;;;13.68;69.84;93792.59;4992929;28;20046;-64
2022/12/25 12:27:05;;;;;;;3.27;1.70;;;;;;;12.98;73.30;93803.16;4991964;28;20046;-64
2022/12/25 12:29:42;;;;;;;3.08;1.65;;;;;;;12.54;75.80;93802.69;4992684;28;20112;-64
2022/12/25 12:32:34;;;;;;;3.92;1.80;;;;;;;12.62;77.57;93799.78;4992805;28;20434;-64
2022/12/25 12:35:08;;;;;;;4.10;2.00;;;;;;;12.22;79.17;93799.94;4991331;28;21808;-64
2022/12/25 12:37:38;;;;;;;4.63;2.75;;;;;;;12.11;81.77;93803.72;5005686;28;20046;-64
2022/12/25 12:40:19;;;;;;;9.33;4.37;;;;;;;11.86;83.17;93795.22;4993032;28;20051;-64
2022/12/25 12:42:49;;;;;;;6.90;3.42;;;;;;;11.77;84.29;93790.28;4992362;28;20051;-64
2022/12/25 12:45:19;;;;;;;5.22;2.70;;;;;;;11.51;85.83;93773.56;4992636;28;20057;-64
2022/12/25 12:47:48;;;;;;;4.28;2.47;;;;;;;11.34;87.60;93777.47;4992253;28;20046;-64
2022/12/25 12:50:30;;;;;;;4.72;2.47;;;;;;;11.27;88.53;93777.59;4992495;28;20105;-64
2022/12/25 12:52:57;;;;;;;4.63;2.43;;;;;;;11.07;90.51;93774.88;4991788;28;20558;-64
2022/12/25 12:55:31;;;;;;;5.25;2.78;;;;;;;11.00;90.13;93778.50;4991471;28;20058;-64
2022/12/25 12:58:03;;;;;;;5.60;3.60;;;;;;;11.07;90.03;93770.16;4990199;28;21661;-64
2022/12/25 13:00:48;;;;;;;5.10;2.65;;;;;;;10.90;90.21;93774.00;4993130;28;20050;-64
2022/12/25 13:03:42;;;;;;;5.90;3.00;;;;;;;11.11;91.19;93776.34;5001716;28;20050;-65
2022/12/25 13:06:51;;;;;;;4.87;2.80;;;;;;;11.02;91.67;93775.34;4991712;28;20300;-64
2022/12/25 13:09:27;;;;;;;6.28;2.88;;;;;;;11.26;91.21;93776.81;5004553;28;20100;-64
2022/12/25 13:11:54;;;;;;;4.55;2.67;;;;;;;11.30;90.71;93774.00;4992251;28;20407;-64
2022/12/25 13:14:23;;;;;;;4.60;2.28;;;;;;;11.30;87.95;93774.78;4991884;28;20038;-64
2022/12/25 13:16:53;;;;;;;4.38;2.35;;;;;;;11.35;88.01;93773.53;4991959;28;20038;-64
2022/12/25 13:19:26;;;;;;;4.00;2.00;;;;;;;11.34;85.47;93777.47;4992153;28;20308;-64
2022/12/25 13:21:59;;;;;;;4.50;2.20;;;;;;;11.57;85.65;93782.09;4992090;28;20124;-64
2022/12/25 13:24:28;;;;;;;3.95;2.35;;;;;;;11.39;84.55;93783.25;4991991;28;20118;-64
2022/12/25 13:26:55;;;;;;;4.82;2.25;;;;;;;11.25;85.97;93783.53;4991071;28;20874;-64
2022/12/25 13:29:22;;;;;;;5.25;2.42;;;;;;;11.24;85.57;93783.94;4992100;28;20035;-64
2022/12/25 13:31:49;;;;;;;4.80;2.73;;;;;;;11.26;86.57;93787.03;4991536;28;20050;-64